createdAt,value
2022-12-27T00:05:11.723Z,100909.66
2022-12-27T00:15:14.862Z,100917.06
2022-12-27T00:25:19.464Z,100884.47
2022-12-27T00:35:22.563Z,100899.53
2022-12-27T00:45:27.089Z,100888.63
2022-12-27T00:55:30.195Z,100866.63
2022-12-27T01:05:37.551Z,100835.38
2022-12-27T01:15:42.821Z,100874.44
2022-12-27T01:25:47.284Z,100860.19
2022-12-27T01:35:50.539Z,100847.41
2022-12-27T01:45:55.194Z,100841.34
2022-12-27T01:56:01.015Z,100854.69
2022-12-27T02:06:07.348Z,100838.03
2022-12-27T02:16:12.797Z,100831.78
2022-12-27T02:26:38.693Z,100837.13
2022-12-27T02:36:44.480Z,100839.56
2022-12-27T02:47:06.172Z,100824.13
2022-12-27T02:57:19.499Z,100838.97
2022-12-27T03:07:28.191Z,100806.94
2022-12-27T03:17:35.902Z,100814.09
2022-12-27T03:27:39.874Z,100827.28
2022-12-27T03:38:06.149Z,100842.00
2022-12-27T03:48:11.991Z,100841.06
2022-12-27T03:58:16.539Z,100850.59
2022-12-27T04:08:37.675Z,100860.16
2022-12-27T04:18:59.475Z,100875.84
2022-12-27T04:29:19.952Z,100882.81
2022-12-27T04:39:24.471Z,100898.63
2022-12-27T04:49:45.355Z,100919.47
2022-12-27T05:00:07.406Z,100928.31
2022-12-27T05:10:28.163Z,100935.28
2022-12-27T05:20:34.971Z,100967.59
2022-12-27T05:30:39.680Z,100992.06
2022-12-27T05:40:44.229Z,100992.09
2022-12-27T05:50:47.299Z,100996.41
2022-12-27T06:00:51.824Z,101013.97
2022-12-27T06:11:03.163Z,101041.91
2022-12-27T06:21:09.035Z,101054.13
2022-12-27T06:31:12.394Z,101069.84
2022-12-27T06:41:18.360Z,101081.22
2022-12-27T06:51:22.170Z,101096.91
2022-12-27T07:01:28.039Z,101104.75
2022-12-27T07:11:33.399Z,101137.06
2022-12-27T07:21:38.025Z,101140.59
2022-12-27T07:31:42.426Z,101152.81
2022-12-27T07:41:46.881Z,101170.25
2022-12-27T07:51:49.963Z,101202.41
2022-12-27T08:02:07.266Z,101215.56
2022-12-27T08:12:10.979Z,101242.22
2022-12-27T08:22:16.833Z,101258.88
2022-12-27T08:32:19.987Z,101280.72
2022-12-27T08:42:24.660Z,101317.34
2022-12-27T08:52:28.261Z,101343.44
2022-12-27T09:02:32.840Z,101367.75
2022-12-27T09:12:36.159Z,101371.09
2022-12-27T09:22:41.070Z,101371.28
2022-12-27T09:32:44.130Z,101381.84
2022-12-27T09:43:08.032Z,101393.50
2022-12-27T09:53:19.989Z,101400.97
2022-12-27T10:03:27.057Z,101426.25
2022-12-27T10:13:42.437Z,101447.91
2022-12-27T10:23:50.481Z,101459.44
2022-12-27T10:33:53.843Z,101453.63
2022-12-27T10:43:58.291Z,101458.19
2022-12-27T10:54:02.759Z,101479.00
2022-12-27T11:04:19.760Z,101483.44
2022-12-27T11:14:23.746Z,101482.84
2022-12-27T11:24:28.319Z,101469.78
2022-12-27T11:34:34.103Z,101477.06
2022-12-27T11:44:41.863Z,101482.78
2022-12-27T11:55:11.853Z,101474.72
2022-12-27T12:05:51.702Z,101492.16
2022-12-27T12:16:24.993Z,101503.22
2022-12-27T12:26:33.315Z,101503.88
2022-12-27T12:36:53.061Z,101502.66
2022-12-27T12:46:59.012Z,101498.47
2022-12-27T12:57:20.995Z,101490.22
2022-12-27T13:07:37.800Z,101498.94
2022-12-27T13:17:50.595Z,101533.50
2022-12-27T13:27:59.515Z,101522.34
2022-12-27T13:38:18.700Z,101547.88
2022-12-27T13:48:42.201Z,101562.06
2022-12-27T13:59:03.119Z,101568.94
2022-12-27T14:09:38.322Z,101572.81
2022-12-27T14:19:55.472Z,101574.22
2022-12-27T14:30:12.210Z,101600.75
2022-12-27T14:40:44.843Z,101622.19
2022-12-27T14:51:41.491Z,101625.84
2022-12-27T15:01:51.629Z,101650.19
2022-12-27T15:12:04.368Z,101640.91
2022-12-27T15:22:13.639Z,101644.53
2022-12-27T15:32:26.229Z,101641.91
2022-12-27T15:42:44.846Z,101671.47
2022-12-27T15:53:09.280Z,101694.19
2022-12-27T16:03:34.615Z,101717.84
2022-12-27T16:13:43.642Z,101749.50
2022-12-27T16:23:53.404Z,101754.69
2022-12-27T16:33:58.123Z,101771.91
2022-12-27T16:44:16.905Z,101787.19
2022-12-27T16:54:29.196Z,101779.84
2022-12-27T17:04:58.223Z,101769.88
2022-12-27T17:15:05.244Z,101776.91
2022-12-27T17:25:15.816Z,101776.84
2022-12-27T17:35:28.733Z,101785.50
2022-12-27T17:45:41.454Z,101776.56
2022-12-27T17:56:05.189Z,101794.28
2022-12-27T18:06:10.197Z,101792.44
2022-12-27T18:16:17.051Z,101791.59
2022-12-27T18:26:23.111Z,101796.09
2022-12-27T18:36:29.571Z,101802.44
2022-12-27T18:46:37.978Z,101808.69
2022-12-27T18:56:42.676Z,101806.69
2022-12-27T19:06:52.759Z,101823.13
2022-12-27T19:16:58.477Z,101825.94
2022-12-27T19:27:16.632Z,101818.94
2022-12-27T19:37:20.274Z,101823.87
2022-12-27T19:47:25.017Z,101805.69
2022-12-27T19:57:28.382Z,101814.72
2022-12-27T20:07:34.046Z,101828.41
2022-12-27T20:17:42.724Z,101836.13
2022-12-27T20:27:49.303Z,101831.56
2022-12-27T20:37:52.566Z,101825.41
2022-12-27T20:48:01.089Z,101820.84
2022-12-27T20:58:04.821Z,101841.50
2022-12-27T21:08:09.510Z,101839.06
2022-12-27T21:18:12.709Z,101846.94
2022-12-27T21:28:18.014Z,101843.22
2022-12-27T21:38:21.388Z,101869.69
2022-12-27T21:48:26.070Z,101863.28
2022-12-27T21:58:31.266Z,101864.53
2022-12-27T22:08:35.674Z,101879.53
2022-12-27T22:18:41.437Z,101858.28
2022-12-27T22:28:46.213Z,101859.59
2022-12-27T22:38:50.332Z,101865.06
2022-12-27T22:48:56.180Z,101865.31
2022-12-27T22:59:00.242Z,101860.69
2022-12-27T23:09:09.724Z,101863.38
2022-12-27T23:19:15.210Z,101863.22
2022-12-27T23:29:20.100Z,101866.28
2022-12-27T23:39:23.210Z,101852.72
2022-12-27T23:49:27.731Z,101845.19
2022-12-27T23:59:30.785Z,101851.16
